Airfield :
LOGIN :

Register | Disclaimer

   EN    FR    IT 

 










Legend :    VFR   Marginal VFR   IFR   Intensive IFR   Very Intensive IFR
Visi :
Ceiling :
>= 8 km
>= 3000ft
5 to 8 km
1000 to 3000 ft
1500m to 5 km
500 to 1000 ft
800 to 1500m
200 to 500 ft
< 800m
< 200 ft
Symbols :   Thunderstorms  Fog  Heavy snow  Heavy precipitations  Wind > 20 kt
SIGMETs :     Misc.  Thunderstorms  Icing  Turbulence  Mountain Waves  Volcanic Ashes






- Airport Elevation : 249 ft


EGOS - RAF Shawbury

CURRENT METAR :
  • 260450Z AUTO 09004KT 9999 -RA OVC036/// 11/10 Q1009

EXPIRED METARs :
  • 260420Z AUTO 09005KT 9999 -RA OVC045/// 11/10 Q1010
  • 260350Z AUTO 09005KT 9999 -RA OVC045/// 11/10 Q1010
  • 260320Z AUTO 10005KT 9999 -RA OVC055/// 11/10 Q1010
  • 260250Z AUTO 13004KT 8000 -RA FEW027/// BKN051/// 11/10 Q1010
  • 260220Z AUTO 11003KT 9999 -RA OVC048/// 11/10 Q1011
  • 260150Z AUTO 16004KT 9000 RA OVC057/// 11/09 Q1011
  • 260120Z AUTO 17007KT 9999 -RA FEW024/// BKN059/// 12/09 Q1011
  • 260050Z AUTO 13004KT 9999 FEW062/// BKN098/// 12/11 Q1011
  • 260020Z AUTO 10006KT 9999 OVC100/// 12/10 Q1011

Expired Forecast.



MET'MAP, your aeronautical weather chart ! - Copyright ORBIFLY December 2007 - Disclaimer

ORBIFLY MET'MAP TEAM :

Programming & Development : Alexandra Zaïnal
Original concept : Baudouin d'Aumeries
Technical & hardware support : Manuel Goepfert
Assistance : Marc-Olivier Méhu




SOURCES & CREDITS :

   NOAA